Time;durP1;ratioP1;P1;durP2;ratioP2;P2;SDS_P1;SDS_P2;PMS_P1;PMS_P2;Temp;Humidity;BMP_temperature;BMP_pressure;BME280_temperature;BME280_humidity;BME280_pressure;Samples;Min_cycle;Max_cycle;Signal;HPM_P1;HPM_P2
2022/05/09 00:00:31;;;;;;;4.13;1.43;;;15.00;48.60;;;;;;5056536;28;20043;-81
2022/05/09 00:02:57;;;;;;;5.33;1.50;;;15.00;48.80;;;;;;5013996;28;20295;-81
2022/05/09 00:05:25;;;;;;;2.90;1.27;;;15.00;48.80;;;;;;5057952;28;20035;-81
2022/05/09 00:07:51;;;;;;;2.33;1.40;;;14.90;49.00;;;;;;5031181;28;20032;-81
2022/05/09 00:10:22;;;;;;;2.63;1.27;;;14.90;49.00;;;;;;5039495;28;20241;-81
2022/05/09 00:12:48;;;;;;;2.50;1.52;;;14.80;49.60;;;;;;5041356;28;20028;-81
2022/05/09 00:15:16;;;;;;;3.27;1.33;;;14.80;49.20;;;;;;5048157;28;21620;-81
2022/05/09 00:17:45;;;;;;;2.95;1.40;;;14.80;49.40;;;;;;5032831;28;20043;-81
2022/05/09 00:20:12;;;;;;;3.67;1.58;;;14.80;50.10;;;;;;5030100;28;20331;-81
2022/05/09 00:22:53;;;;;;;3.33;1.60;;;14.70;49.40;;;;;;5058230;28;20499;-81
2022/05/09 00:25:22;;;;;;;3.58;1.60;;;14.70;50.90;;;;;;5012613;28;20440;-81
2022/05/09 00:27:47;;;;;;;2.03;1.30;;;14.70;49.60;;;;;;5055262;28;20036;-81
2022/05/09 00:30:14;;;;;;;3.97;1.50;;;14.60;49.60;;;;;;5047655;28;20036;-81
2022/05/09 00:32:39;;;;;;;2.90;1.35;;;14.60;49.80;;;;;;5018838;28;20032;-81
2022/05/09 00:35:07;;;;;;;3.90;1.47;;;14.60;49.80;;;;;;5025929;28;20730;-81
2022/05/09 00:37:32;;;;;;;2.53;1.55;;;14.50;49.90;;;;;;5035550;28;20032;-81
2022/05/09 00:39:58;;;;;;;3.60;1.73;;;14.40;49.90;;;;;;5022468;28;20469;-81
2022/05/09 00:42:24;;;;;;;2.33;1.33;;;14.40;50.00;;;;;;5069216;28;20033;-81
2022/05/09 00:44:49;;;;;;;2.87;1.53;;;14.30;50.00;;;;;;5045117;28;20024;-81
2022/05/09 00:47:15;;;;;;;3.95;1.60;;;14.30;50.20;;;;;;5045599;28;20291;-81
2022/05/09 00:49:46;;;;;;;5.30;1.57;;;14.30;50.40;;;;;;5028556;28;20464;-81
2022/05/09 00:52:27;;;;;;;3.50;1.50;;;14.20;50.80;;;;;;5055527;28;20280;-81
2022/05/09 00:55:00;;;;;;;3.08;1.77;;;14.10;52.20;;;;;;5045746;28;20089;-81
2022/05/09 00:57:29;;;;;;;2.60;1.42;;;14.10;51.30;;;;;;5042079;28;20214;-81
2022/05/09 01:00:00;;;;;;;1.87;1.40;;;14.10;51.20;;;;;;5061548;28;20041;-81
2022/05/09 01:02:28;;;;;;;2.72;1.50;;;14.00;51.10;;;;;;5054408;28;20503;-81
2022/05/09 01:04:57;;;;;;;3.10;1.73;;;14.00;51.00;;;;;;5019038;28;20109;-81
2022/05/09 01:07:25;;;;;;;2.95;1.33;;;13.90;51.20;;;;;;5049889;28;20488;-81
2022/05/09 01:09:51;;;;;;;4.18;1.73;;;13.90;51.20;;;;;;5028500;28;20035;-81
2022/05/09 01:12:29;;;;;;;2.77;1.50;;;13.90;51.20;;;;;;5037590;28;20025;-81
2022/05/09 01:14:57;;;;;;;3.20;1.40;;;13.80;52.20;;;;;;5069835;28;20412;-81
2022/05/09 01:17:23;;;;;;;3.13;1.60;;;13.80;51.30;;;;;;5043947;28;20047;-81
2022/05/09 01:19:52;;;;;;;3.58;1.55;;;13.80;51.40;;;;;;5035952;28;20032;-81
2022/05/09 01:22:29;;;;;;;5.23;1.57;;;13.70;51.40;;;;;;5039607;28;20056;-81
2022/05/09 01:24:57;;;;;;;2.63;1.40;;;13.70;52.20;;;;;;5049922;28;20064;-81
2022/05/09 01:27:23;;;;;;;2.40;1.45;;;13.60;51.50;;;;;;5044840;28;20033;-81
2022/05/09 01:29:56;;;;;;;2.67;1.38;;;13.50;51.40;;;;;;5042187;28;20035;-81
2022/05/09 01:32:48;;;;;;;3.53;1.67;;;13.50;52.40;;;;;;5044188;28;20032;-81
2022/05/09 01:35:38;;;;;;;2.03;1.30;;;13.40;53.40;;;;;;5037637;28;20041;-81
2022/05/09 01:38:06;;;;;;;3.25;1.40;;;13.40;53.40;;;;;;5045183;28;20840;-81
2022/05/09 01:40:32;;;;;;;2.45;1.50;;;13.30;52.00;;;;;;5037683;28;21026;-81
2022/05/09 01:42:58;;;;;;;3.37;1.50;;;13.30;51.80;;;;;;5069869;28;20051;-82
2022/05/09 01:45:23;;;;;;;2.50;1.38;;;13.20;51.90;;;;;;5047745;28;20043;-81
2022/05/09 01:50:42;;;;;;;2.50;1.38;;;13.10;52.00;;;;;;5020753;28;20041;-81
2022/05/09 01:53:08;;;;;;;2.42;1.38;;;13.10;52.00;;;;;;5060373;28;20063;-81
2022/05/09 01:55:34;;;;;;;2.40;1.23;;;13.00;52.20;;;;;;5038187;28;20166;-81
2022/05/09 01:57:59;;;;;;;2.50;1.40;;;13.00;52.30;;;;;;5065387;28;20020;-81
2022/05/09 02:00:25;;;;;;;3.77;1.47;;;12.90;52.40;;;;;;5042784;28;20086;-81
2022/05/09 02:02:51;;;;;;;3.63;1.48;;;12.90;52.50;;;;;;5071765;28;20051;-81
2022/05/09 02:05:16;;;;;;;2.00;1.37;;;12.80;52.60;;;;;;5048487;28;20035;-81
2022/05/09 02:07:43;;;;;;;1.88;1.33;;;12.80;52.80;;;;;;5034112;28;20335;-81
2022/05/09 02:10:09;;;;;;;3.17;1.70;;;12.80;52.90;;;;;;5063329;28;20044;-81
2022/05/09 02:12:35;;;;;;;2.97;1.37;;;12.70;52.90;;;;;;5057554;28;20203;-81
2022/05/09 02:15:00;;;;;;;2.10;1.30;;;12.70;53.00;;;;;;5075901;28;20036;-81
2022/05/09 02:17:26;;;;;;;2.08;1.25;;;12.60;53.10;;;;;;5033330;28;20071;-81
2022/05/09 02:19:52;;;;;;;2.57;1.50;;;12.60;53.10;;;;;;5061890;28;20043;-81
2022/05/09 02:22:18;;;;;;;2.97;1.48;;;12.50;53.20;;;;;;5033633;28;20024;-81
2022/05/09 02:24:45;;;;;;;1.70;1.20;;;12.50;53.30;;;;;;5066089;28;20040;-81
2022/05/09 02:27:10;;;;;;;2.85;1.30;;;12.50;53.40;;;;;;5031375;28;20093;-81
2022/05/09 02:29:39;;;;;;;3.07;1.43;;;12.50;53.50;;;;;;5064657;28;20205;-81
2022/05/09 02:32:06;;;;;;;2.80;1.40;;;12.40;53.60;;;;;;5043634;28;20771;-81
2022/05/09 02:34:31;;;;;;;2.75;1.60;;;12.40;53.60;;;;;;5036155;28;20073;-81
2022/05/09 02:36:57;;;;;;;2.25;1.48;;;12.40;54.30;;;;;;5030993;28;20036;-81
2022/05/09 02:39:23;;;;;;;1.90;1.30;;;12.40;53.70;;;;;;5041409;28;20028;-81
2022/05/09 02:41:49;;;;;;;2.33;1.30;;;12.30;53.70;;;;;;5060774;28;21046;-81
2022/05/09 02:44:15;;;;;;;1.90;1.38;;;12.30;53.70;;;;;;5048168;28;20020;-81
2022/05/09 02:46:42;;;;;;;2.20;1.23;;;12.20;53.70;;;;;;5058300;28;20036;-81
2022/05/09 02:49:08;;;;;;;2.00;1.35;;;12.20;53.80;;;;;;5039092;28;20028;-81
2022/05/09 02:51:34;;;;;;;2.03;1.23;;;12.10;53.90;;;;;;5048882;28;20713;-81
2022/05/09 02:54:00;;;;;;;2.40;1.40;;;12.10;53.80;;;;;;5063460;28;20037;-81
2022/05/09 02:56:26;;;;;;;1.70;1.40;;;12.10;53.90;;;;;;5036383;28;20040;-81
2022/05/09 02:58:53;;;;;;;1.88;1.20;;;12.00;54.00;;;;;;5039106;28;20041;-81
2022/05/09 03:01:19;;;;;;;2.90;1.40;;;12.00;54.00;;;;;;5065479;28;20404;-81
2022/05/09 03:06:29;;;;;;;1.80;1.27;;;11.90;54.20;;;;;;5052357;28;20123;-81
2022/05/09 03:08:55;;;;;;;2.17;1.30;;;11.90;54.20;;;;;;5035679;28;20169;-81
2022/05/09 03:11:21;;;;;;;3.35;1.60;;;11.80;54.20;;;;;;5038132;28;20028;-81
2022/05/09 03:13:48;;;;;;;3.07;1.40;;;11.80;54.40;;;;;;5054032;28;20044;-81
2022/05/09 03:16:14;;;;;;;2.92;1.35;;;11.70;54.50;;;;;;5051462;28;20505;-81
2022/05/09 03:18:39;;;;;;;1.60;1.40;;;11.70;54.40;;;;;;5054759;28;20116;-81
2022/05/09 03:21:05;;;;;;;1.50;1.30;;;11.60;54.40;;;;;;5052297;28;20039;-81
2022/05/09 03:23:31;;;;;;;2.70;1.40;;;11.60;54.50;;;;;;5050685;28;20040;-81
2022/05/09 03:25:57;;;;;;;1.37;1.10;;;11.60;54.60;;;;;;5037421;28;20033;-81
2022/05/09 03:28:24;;;;;;;2.15;1.30;;;11.50;54.60;;;;;;5047546;28;20051;-81
2022/05/09 03:30:52;;;;;;;3.00;1.52;;;11.50;54.80;;;;;;5053335;28;20037;-82
2022/05/09 03:33:20;;;;;;;1.95;1.33;;;11.40;54.70;;;;;;5041504;28;20056;-81
2022/05/09 03:35:45;;;;;;;1.80;1.40;;;11.40;54.70;;;;;;5050092;28;20032;-81
2022/05/09 03:38:11;;;;;;;1.95;1.30;;;11.40;54.80;;;;;;5050980;28;20032;-81
2022/05/09 03:40:37;;;;;;;1.98;1.45;;;11.30;55.00;;;;;;5032691;28;20177;-81
2022/05/09 03:43:03;;;;;;;2.60;1.23;;;11.30;54.90;;;;;;5058087;28;20052;-81
2022/05/09 03:45:28;;;;;;;1.92;1.40;;;11.20;54.90;;;;;;5051801;28;20048;-81
2022/05/09 03:47:54;;;;;;;2.90;1.60;;;11.20;55.10;;;;;;5052625;28;20032;-81
2022/05/09 03:50:21;;;;;;;2.20;1.50;;;11.20;55.20;;;;;;5060722;28;20045;-81
2022/05/09 03:52:47;;;;;;;2.60;1.48;;;11.10;55.20;;;;;;5039265;28;20061;-81
2022/05/09 03:55:13;;;;;;;1.87;1.33;;;11.10;55.20;;;;;;5049006;28;20069;-81
2022/05/09 03:57:53;;;;;;;3.13;1.60;;;11.10;55.40;;;;;;5061695;28;20028;-81
2022/05/09 04:00:24;;;;;;;2.00;1.33;;;11.00;56.40;;;;;;5049130;28;20554;-81
2022/05/09 04:02:49;;;;;;;2.85;1.40;;;11.00;55.60;;;;;;5052996;28;21930;-82
2022/05/09 04:05:17;;;;;;;2.67;1.30;;;10.90;55.40;;;;;;5045537;28;20449;-81
2022/05/09 04:07:50;;;;;;;1.80;1.30;;;10.90;55.50;;;;;;5058137;28;20271;-81
2022/05/09 04:10:20;;;;;;;2.67;1.55;;;10.90;56.00;;;;;;5049035;28;20329;-81
2022/05/09 04:12:46;;;;;;;3.53;1.30;;;10.90;55.80;;;;;;5065411;28;20389;-81
2022/05/09 04:17:57;;;;;;;3.03;1.60;;;10.80;55.80;;;;;;5071502;28;20032;-80
2022/05/09 04:20:24;;;;;;;3.70;1.40;;;10.70;55.80;;;;;;5040024;28;20038;-81
2022/05/09 04:22:51;;;;;;;3.15;1.23;;;10.70;55.90;;;;;;5052099;28;20052;-81
2022/05/09 04:25:19;;;;;;;2.10;1.40;;;10.70;55.90;;;;;;5042158;28;20066;-81
2022/05/09 04:27:44;;;;;;;1.77;1.20;;;10.70;56.10;;;;;;5040035;28;20089;-81
2022/05/09 04:30:11;;;;;;;2.40;1.50;;;10.70;56.20;;;;;;5045566;28;20017;-81
2022/05/09 04:32:38;;;;;;;2.30;1.60;;;10.70;56.40;;;;;;5025205;28;20093;-81
2022/05/09 04:35:04;;;;;;;2.10;1.43;;;10.70;56.30;;;;;;5047421;28;20389;-81
2022/05/09 04:37:30;;;;;;;3.67;1.70;;;10.70;56.40;;;;;;5039504;28;20636;-81
2022/05/09 04:39:56;;;;;;;2.90;1.60;;;10.60;56.40;;;;;;5045273;28;20029;-83
2022/05/09 04:42:22;;;;;;;4.18;1.73;;;10.60;56.60;;;;;;5034374;28;20277;-81
2022/05/09 04:44:47;;;;;;;1.97;1.40;;;10.60;56.50;;;;;;5061051;28;20042;-81
2022/05/09 04:47:13;;;;;;;2.37;1.50;;;10.60;56.50;;;;;;5055441;28;20028;-81
2022/05/09 04:49:39;;;;;;;2.57;1.50;;;10.60;56.70;;;;;;5047501;28;20339;-81
2022/05/09 04:52:06;;;;;;;2.92;1.60;;;10.60;56.80;;;;;;5038694;28;20064;-81
2022/05/09 04:54:31;;;;;;;2.25;1.58;;;10.60;56.90;;;;;;5038547;28;20458;-81
2022/05/09 04:56:57;;;;;;;2.60;1.47;;;10.70;57.00;;;;;;5040168;28;20166;-81
2022/05/09 04:59:22;;;;;;;1.92;1.42;;;10.60;57.00;;;;;;5055419;28;20063;-80
2022/05/09 05:01:48;;;;;;;2.70;1.63;;;10.70;57.10;;;;;;5057117;28;20056;-81
2022/05/09 05:04:16;;;;;;;2.22;1.40;;;10.70;57.20;;;;;;5024791;28;20041;-81
2022/05/09 05:06:41;;;;;;;3.10;1.60;;;10.70;57.20;;;;;;5049337;28;20142;-81
2022/05/09 05:09:07;;;;;;;3.03;1.60;;;10.80;57.30;;;;;;5058104;28;20393;-81
2022/05/09 05:11:33;;;;;;;2.30;1.55;;;10.80;57.40;;;;;;5033289;28;20650;-81
2022/05/09 05:13:58;;;;;;;2.73;1.50;;;10.80;57.50;;;;;;5060354;28;20036;-82
2022/05/09 05:16:59;;;;;;;2.10;1.50;;;10.80;57.60;;;;;;5056147;28;20177;-81
2022/05/09 05:19:09;;;;;;;2.53;1.63;;;10.90;57.80;;;;;;5049951;28;20794;-81
2022/05/09 05:21:35;;;;;;;3.67;1.70;;;10.90;57.80;;;;;;5029577;28;20044;-81
2022/05/09 05:24:00;;;;;;;3.20;1.50;;;11.00;57.90;;;;;;5059444;28;20040;-81
2022/05/09 05:26:26;;;;;;;3.15;1.80;;;11.00;58.00;;;;;;5012774;28;20723;-81
2022/05/09 05:28:52;;;;;;;2.83;1.50;;;11.00;58.10;;;;;;5051440;28;20161;-81
2022/05/09 05:31:18;;;;;;;2.95;1.50;;;11.10;58.10;;;;;;5038194;28;20033;-81
2022/05/09 05:33:45;;;;;;;3.23;1.80;;;11.20;58.30;;;;;;5041080;28;20251;-81
2022/05/09 05:36:12;;;;;;;2.53;1.60;;;11.20;58.30;;;;;;5042624;28;20033;-81
2022/05/09 05:38:39;;;;;;;3.00;1.60;;;11.30;58.50;;;;;;5053815;28;20284;-81
2022/05/09 05:41:04;;;;;;;2.83;1.60;;;11.40;58.50;;;;;;5029027;28;20040;-81
2022/05/09 05:43:30;;;;;;;3.13;1.73;;;11.50;58.60;;;;;;5042420;28;20117;-81
2022/05/09 05:45:56;;;;;;;2.40;1.50;;;11.60;58.60;;;;;;5056841;28;20041;-81
2022/05/09 05:48:22;;;;;;;1.98;1.48;;;11.60;58.60;;;;;;5034953;28;20398;-81
2022/05/09 05:50:47;;;;;;;3.33;1.93;;;11.70;58.60;;;;;;5047040;28;20116;-81
2022/05/09 05:53:14;;;;;;;1.80;1.53;;;11.80;58.60;;;;;;5044012;28;20040;-81
2022/05/09 05:55:39;;;;;;;3.20;1.80;;;11.90;58.80;;;;;;5026421;28;20113;-81
2022/05/09 05:58:05;;;;;;;4.50;1.73;;;12.00;58.80;;;;;;5023111;28;20021;-81
2022/05/09 06:00:31;;;;;;;3.20;1.60;;;12.00;58.50;;;;;;5027723;28;20382;-81
2022/05/09 06:02:56;;;;;;;2.80;1.63;;;12.10;58.60;;;;;;5057032;28;20047;-81
2022/05/09 06:05:22;;;;;;;4.10;2.10;;;12.20;58.50;;;;;;5031855;28;20033;-81
2022/05/09 06:07:52;;;;;;;5.67;2.30;;;12.30;58.60;;;;;;5050485;28;20393;-81
2022/05/09 06:10:18;;;;;;;5.20;2.20;;;12.40;58.60;;;;;;5040167;28;20032;-81
2022/05/09 06:12:44;;;;;;;4.18;2.20;;;12.50;58.70;;;;;;5038189;28;20021;-81
2022/05/09 06:17:57;;;;;;;5.53;2.20;;;12.70;58.70;;;;;;5041648;28;20036;-81
2022/05/09 06:20:23;;;;;;;5.10;2.60;;;12.80;58.70;;;;;;5013486;28;20334;-81
2022/05/09 06:22:49;;;;;;;4.95;2.35;;;12.90;58.80;;;;;;5045227;28;20024;-81
2022/05/09 06:25:17;;;;;;;3.45;2.13;;;13.00;59.00;;;;;;5042732;28;20499;-80
2022/05/09 06:27:42;;;;;;;5.30;2.33;;;13.10;59.00;;;;;;5052805;28;20182;-80
2022/05/09 06:30:11;;;;;;;6.03;2.83;;;13.20;58.90;;;;;;5036566;28;20033;-81
2022/05/09 06:32:37;;;;;;;5.53;2.47;;;13.30;59.00;;;;;;5038911;28;20250;-80
2022/05/09 06:35:06;;;;;;;4.60;2.28;;;13.50;58.90;;;;;;5037779;28;20107;-80
2022/05/09 06:37:33;;;;;;;5.13;2.80;;;13.50;59.00;;;;;;5022308;28;20021;-81
2022/05/09 06:40:02;;;;;;;4.22;2.22;;;13.70;59.00;;;;;;5056699;28;20027;-80
2022/05/09 06:42:28;;;;;;;5.93;2.47;;;13.80;58.90;;;;;;5051022;28;20305;-81
2022/05/09 06:44:55;;;;;;;4.90;2.47;;;13.90;58.90;;;;;;5012950;28;20381;-81
2022/05/09 06:47:20;;;;;;;5.68;2.80;;;14.00;58.70;;;;;;5047514;28;20021;-81
2022/05/09 06:49:46;;;;;;;5.13;2.50;;;14.10;58.60;;;;;;5054922;28;20039;-81
2022/05/09 06:52:12;;;;;;;4.23;2.23;;;14.20;58.70;;;;;;5017836;28;20663;-81
2022/05/09 06:54:38;;;;;;;4.68;2.30;;;14.40;58.80;;;;;;5036811;28;20053;-81
2022/05/09 06:57:04;;;;;;;3.90;2.50;;;14.50;58.70;;;;;;5034229;28;20558;-81
2022/05/09 06:59:34;;;;;;;5.90;2.95;;;14.70;58.60;;;;;;5041743;28;20067;-80
2022/05/09 07:02:00;;;;;;;4.38;2.70;;;14.80;58.50;;;;;;5033357;28;20029;-80
2022/05/09 07:04:27;;;;;;;6.45;2.80;;;14.90;58.30;;;;;;5050205;28;20033;-81
2022/05/09 07:06:53;;;;;;;6.47;2.60;;;15.00;58.40;;;;;;5057073;28;20031;-80
2022/05/09 07:09:18;;;;;;;5.20;2.50;;;15.10;58.40;;;;;;5041832;28;20245;-81
2022/05/09 07:11:44;;;;;;;5.25;2.38;;;15.20;58.40;;;;;;5028089;28;20113;-80
2022/05/09 07:14:10;;;;;;;5.37;2.37;;;15.50;58.30;;;;;;5031070;28;20227;-80
2022/05/09 07:16:36;;;;;;;5.53;2.70;;;15.60;58.40;;;;;;5022407;28;20037;-80
2022/05/09 07:19:04;;;;;;;5.55;2.85;;;15.70;58.30;;;;;;5031334;28;20040;-80
2022/05/09 07:21:31;;;;;;;4.95;2.47;;;15.90;58.30;;;;;;5049447;28;20813;-80
2022/05/09 07:23:57;;;;;;;5.67;2.50;;;16.00;58.20;;;;;;5060484;28;20051;-81
2022/05/09 07:26:23;;;;;;;4.03;2.35;;;16.20;58.00;;;;;;5042450;28;20338;-81
2022/05/09 07:28:49;;;;;;;4.13;2.53;;;16.30;57.90;;;;;;5048561;28;20031;-81
2022/05/09 07:31:15;;;;;;;5.50;2.60;;;16.50;57.90;;;;;;5031129;28;20047;-81
2022/05/09 07:33:42;;;;;;;5.60;2.80;;;16.60;58.00;;;;;;5058179;28;20025;-81
2022/05/09 07:36:08;;;;;;;7.47;2.53;;;16.80;58.00;;;;;;5022856;28;20324;-81
2022/05/09 07:38:33;;;;;;;5.33;2.60;;;17.00;57.90;;;;;;5047514;28;20080;-81
2022/05/09 07:40:59;;;;;;;4.93;2.47;;;17.20;57.80;;;;;;5040584;28;20568;-81
2022/05/09 07:43:27;;;;;;;4.82;2.67;;;17.40;58.00;;;;;;5031479;28;20048;-81
2022/05/09 07:45:54;;;;;;;5.00;2.67;;;17.60;58.30;;;;;;5019942;28;20039;-81
2022/05/09 07:48:24;;;;;;;5.97;2.47;;;17.90;58.50;;;;;;5032189;28;20272;-81
2022/05/09 07:50:50;;;;;;;6.90;2.80;;;18.20;59.00;;;;;;5033897;28;20032;-81
2022/05/09 07:53:19;;;;;;;5.25;2.60;;;18.50;59.20;;;;;;5054981;28;20086;-81
2022/05/09 07:55:45;;;;;;;6.03;2.60;;;19.00;59.70;;;;;;5057304;28;20048;-80
2022/05/09 07:58:11;;;;;;;5.07;2.67;;;19.40;60.50;;;;;;5027268;28;20060;-81
2022/05/09 08:00:38;;;;;;;4.97;2.50;;;20.00;61.20;;;;;;5055898;28;20287;-81
2022/05/09 08:03:06;;;;;;;4.95;2.30;;;20.60;61.60;;;;;;5034375;28;20044;-81
2022/05/09 08:05:33;;;;;;;5.40;2.58;;;21.30;61.80;;;;;;5041570;28;20036;-81
2022/05/09 08:07:58;;;;;;;3.85;2.50;;;21.90;61.30;;;;;;5053213;28;20044;-81
2022/05/09 08:10:24;;;;;;;4.80;2.47;;;22.60;60.50;;;;;;5030621;28;20085;-81
2022/05/09 08:12:52;;;;;;;5.47;2.53;;;23.20;59.70;;;;;;5060937;28;20039;-80
2022/05/09 08:15:20;;;;;;;4.47;2.20;;;23.90;58.40;;;;;;5046164;28;20171;-81
2022/05/09 08:17:47;;;;;;;4.63;2.57;;;24.50;57.40;;;;;;5026159;28;20441;-81
2022/05/09 08:20:14;;;;;;;3.63;2.40;;;25.10;56.90;;;;;;5056897;28;20554;-81
2022/05/09 08:22:40;;;;;;;4.40;2.22;;;25.70;56.20;;;;;;5037983;28;20528;-81
2022/05/09 08:25:07;;;;;;;5.43;2.63;;;26.30;55.50;;;;;;5029742;28;20032;-82
2022/05/09 08:27:33;;;;;;;5.03;2.30;;;26.80;54.10;;;;;;5066666;28;20115;-82
2022/05/09 08:29:59;;;;;;;3.80;2.13;;;27.20;53.30;;;;;;5028782;28;20572;-81
2022/05/09 08:32:26;;;;;;;4.30;2.20;;;27.70;52.60;;;;;;5038753;28;20116;-81
2022/05/09 08:34:53;;;;;;;4.35;2.45;;;28.10;51.40;;;;;;5053399;28;20047;-81
2022/05/09 08:37:19;;;;;;;3.67;2.25;;;28.40;50.70;;;;;;5050389;28;20926;-81
2022/05/09 08:39:46;;;;;;;3.50;1.90;;;28.80;49.80;;;;;;5052450;28;20036;-82
2022/05/09 08:42:18;;;;;;;4.68;2.00;;;29.20;49.00;;;;;;5016564;28;20036;-82
2022/05/09 08:45:10;;;;;;;3.35;2.17;;;29.40;47.10;;;;;;5071446;28;20056;-82
2022/05/09 08:47:41;;;;;;;4.28;2.22;;;29.70;44.70;;;;;;5035846;28;20036;-82
2022/05/09 08:50:15;;;;;;;3.23;1.77;;;30.00;46.40;;;;;;5043484;28;20035;-82
2022/05/09 08:52:49;;;;;;;2.67;1.80;;;30.20;45.40;;;;;;5045817;28;20051;-82
2022/05/09 08:55:19;;;;;;;3.58;2.00;;;30.50;44.50;;;;;;5053143;28;20344;-81
2022/05/09 08:57:51;;;;;;;2.70;1.80;;;30.70;43.80;;;;;;5053426;28;20553;-81
2022/05/09 09:00:18;;;;;;;2.88;1.90;;;30.90;42.90;;;;;;5021884;28;20801;-81
2022/05/09 09:03:01;;;;;;;2.73;1.60;;;31.20;43.30;;;;;;5052642;28;20016;-81
2022/05/09 09:05:33;;;;;;;2.88;1.90;;;31.40;41.40;;;;;;5056262;28;20262;-81
2022/05/09 09:08:18;;;;;;;3.35;1.80;;;31.70;40.50;;;;;;5055849;28;20040;-82
2022/05/09 09:10:55;;;;;;;3.05;1.92;;;31.90;38.80;;;;;;5047528;28;20129;-82
2022/05/09 09:13:30;;;;;;;2.67;1.60;;;32.10;38.40;;;;;;5041077;28;20262;-82
2022/05/09 09:16:15;;;;;;;3.27;1.50;;;32.30;38.90;;;;;;5038980;28;20118;-81
2022/05/09 09:19:18;;;;;;;2.80;1.52;;;32.50;38.00;;;;;;5029359;28;20037;-81
2022/05/09 09:22:00;;;;;;;3.08;1.60;;;32.70;36.80;;;;;;5029068;28;20036;-82
2022/05/09 09:24:48;;;;;;;2.83;1.65;;;32.90;37.30;;;;;;5023312;28;20045;-82
2022/05/09 09:27:35;;;;;;;2.90;1.50;;;33.00;37.50;;;;;;5011841;28;20598;-82
2022/05/09 09:30:10;;;;;;;1.50;1.40;;;33.10;35.70;;;;;;5055388;28;20028;-82
2022/05/09 09:32:42;;;;;;;2.65;1.48;;;33.20;35.60;;;;;;5009504;28;20420;-81
2022/05/09 09:35:31;;;;;;;2.42;1.70;;;33.30;35.70;;;;;;5004883;28;20127;-82
2022/05/09 09:38:05;;;;;;;2.53;1.60;;;33.40;34.90;;;;;;5024162;28;20546;-82
2022/05/09 09:40:32;;;;;;;2.63;1.70;;;33.50;34.50;;;;;;5029866;28;20036;-82
2022/05/09 09:42:57;;;;;;;2.20;1.40;;;33.60;34.70;;;;;;5029891;28;20063;-82
2022/05/09 09:45:29;;;;;;;2.47;1.60;;;33.70;34.20;;;;;;5034691;28;20123;-82
2022/05/09 09:48:08;;;;;;;3.60;1.70;;;33.70;33.60;;;;;;5035897;28;20064;-80
2022/05/09 09:50:35;;;;;;;2.80;1.50;;;33.80;31.90;;;;;;5014995;28;20074;-82
2022/05/09 09:53:01;;;;;;;2.63;1.60;;;33.90;33.60;;;;;;5030041;28;20180;-82
2022/05/09 09:55:37;;;;;;;2.50;1.55;;;34.10;33.30;;;;;;5036061;28;20115;-81
2022/05/09 09:58:29;;;;;;;2.50;1.40;;;34.30;31.80;;;;;;5030849;28;20378;-82
2022/05/09 10:01:07;;;;;;;2.00;1.23;;;34.40;30.60;;;;;;5018292;28;20429;-82
2022/05/09 10:03:35;;;;;;;1.58;1.20;;;34.50;29.40;;;;;;5023535;28;20032;-82
2022/05/09 10:06:01;;;;;;;1.85;1.27;;;34.60;31.50;;;;;;5025997;28;20048;-82
2022/05/09 10:08:37;;;;;;;2.20;1.30;;;34.60;30.50;;;;;;5033474;28;20029;-82
2022/05/09 10:11:10;;;;;;;2.53;1.40;;;34.60;30.00;;;;;;5032579;28;20082;-82
2022/05/09 10:13:48;;;;;;;1.40;1.20;;;34.60;30.40;;;;;;5032454;28;20033;-82
2022/05/09 10:16:55;;;;;;;1.30;1.20;;;34.80;29.50;;;;;;5038136;28;20169;-82
2022/05/09 10:19:31;;;;;;;1.23;1.10;;;34.90;28.90;;;;;;5001753;28;21015;-82
2022/05/09 10:24:48;;;;;;;2.20;1.35;;;35.20;29.40;;;;;;5049303;28;20053;-82
2022/05/09 10:27:20;;;;;;;3.83;1.63;;;35.20;29.40;;;;;;5034259;28;20488;-82
2022/05/09 10:29:49;;;;;;;2.58;1.40;;;35.40;28.70;;;;;;5053811;28;20424;-81
2022/05/09 10:32:20;;;;;;;2.20;1.35;;;35.50;29.00;;;;;;5061981;28;20036;-82
2022/05/09 10:34:56;;;;;;;1.55;1.42;;;35.60;28.80;;;;;;5033895;28;20060;-82
2022/05/09 10:37:42;;;;;;;2.97;1.70;;;35.70;28.00;;;;;;5040099;28;20070;-82
2022/05/09 10:40:16;;;;;;;2.70;1.57;;;35.80;27.60;;;;;;5033544;28;20486;-82
2022/05/09 10:42:46;;;;;;;2.28;1.50;;;35.90;27.90;;;;;;5057424;28;20060;-82
2022/05/09 10:45:24;;;;;;;2.60;1.60;;;36.00;28.20;;;;;;5057629;28;20055;-81
2022/05/09 10:47:58;;;;;;;1.75;1.50;;;36.10;27.30;;;;;;5052810;28;20040;-82
2022/05/09 10:50:31;;;;;;;2.53;1.38;;;36.20;28.20;;;;;;5041381;28;20032;-82
2022/05/09 10:53:11;;;;;;;2.07;1.60;;;36.40;27.70;;;;;;5015517;28;20037;-82
2022/05/09 10:55:58;;;;;;;1.50;1.30;;;36.50;27.90;;;;;;5053258;28;20384;-82
2022/05/09 10:58:55;;;;;;;2.42;1.58;;;36.70;27.50;;;;;;5057798;28;20036;-83
2022/05/09 11:01:47;;;;;;;2.15;1.38;;;36.80;26.90;;;;;;5048753;28;20548;-83
2022/05/09 11:04:16;;;;;;;3.15;1.70;;;37.00;26.80;;;;;;5037787;28;20467;-82
2022/05/09 11:07:03;;;;;;;3.23;1.60;;;37.00;27.30;;;;;;5030992;28;20075;-82
2022/05/09 11:09:47;;;;;;;2.90;1.70;;;37.20;26.60;;;;;;5051744;28;20124;-82
2022/05/09 11:12:31;;;;;;;2.00;1.77;;;37.30;26.10;;;;;;5035889;28;20038;-83
2022/05/09 11:15:02;;;;;;;2.53;1.70;;;37.30;25.90;;;;;;5049634;28;20613;-82
2022/05/09 11:17:48;;;;;;;1.83;1.50;;;37.30;26.30;;;;;;5052462;28;20041;-82
2022/05/09 11:20:35;;;;;;;2.43;1.63;;;37.30;26.50;;;;;;5057366;28;20428;-82
2022/05/09 11:23:27;;;;;;;2.17;1.42;;;37.40;25.60;;;;;;5050267;28;20123;-82
2022/05/09 11:26:11;;;;;;;2.05;1.50;;;37.50;25.40;;;;;;5048397;28;20032;-82
2022/05/09 11:29:12;;;;;;;2.28;1.70;;;37.60;26.00;;;;;;5061367;28;20029;-82
2022/05/09 11:31:55;;;;;;;2.65;1.90;;;37.60;26.00;;;;;;5022310;28;20496;-82
2022/05/09 11:34:33;;;;;;;2.53;1.60;;;37.80;25.80;;;;;;5042915;28;20033;-81
2022/05/09 11:37:29;;;;;;;2.35;1.73;;;37.90;26.10;;;;;;5041914;28;20122;-83
2022/05/09 11:40:14;;;;;;;2.95;1.80;;;37.90;25.40;;;;;;5012134;28;20101;-80
2022/05/09 11:45:59;;;;;;;3.38;1.70;;;38.10;25.50;;;;;;5052742;28;20040;-82
2022/05/09 11:48:48;;;;;;;2.87;1.80;;;38.30;25.40;;;;;;5050468;28;20086;-81
2022/05/09 11:51:28;;;;;;;1.98;1.70;;;38.50;25.20;;;;;;5037707;28;20561;-81
2022/05/09 11:54:01;;;;;;;3.17;2.10;;;38.70;25.70;;;;;;5055867;28;20051;-82
2022/05/09 11:56:29;;;;;;;2.58;1.90;;;38.80;25.40;;;;;;5040327;28;20040;-82
2022/05/09 11:58:55;;;;;;;5.35;1.98;;;39.00;25.40;;;;;;5036407;28;20467;-81
2022/05/09 12:01:59;;;;;;;2.00;1.70;;;39.10;25.50;;;;;;5040998;28;20028;-82
2022/05/09 12:04:41;;;;;;;2.25;1.88;;;39.30;24.80;;;;;;5057393;28;20322;-82
2022/05/09 12:07:26;;;;;;;2.03;1.83;;;39.40;24.80;;;;;;5012993;28;20580;-82
2022/05/09 12:10:15;;;;;;;3.05;1.80;;;39.40;24.40;;;;;;5058397;28;20048;-82
2022/05/09 12:12:57;;;;;;;2.90;1.92;;;39.30;24.00;;;;;;5048530;28;20575;-82
2022/05/09 12:15:22;;;;;;;2.40;1.83;;;39.20;23.50;;;;;;5047133;28;20087;-81
2022/05/09 12:18:18;;;;;;;3.00;1.90;;;39.00;24.60;;;;;;5063065;28;20040;-82
2022/05/09 12:20:57;;;;;;;2.05;1.80;;;38.90;24.40;;;;;;5041582;28;20277;-81
2022/05/09 12:23:41;;;;;;;2.57;1.80;;;38.90;25.00;;;;;;5029898;28;20035;-83
2022/05/09 12:26:09;;;;;;;2.42;1.98;;;39.10;24.90;;;;;;5024307;28;20113;-81
2022/05/09 12:28:40;;;;;;;5.82;2.60;;;39.10;24.70;;;;;;5034779;28;20489;-81
2022/05/09 12:31:35;;;;;;;2.58;2.10;;;39.10;24.00;;;;;;5031285;28;20470;-80
2022/05/09 12:34:01;;;;;;;3.00;2.20;;;39.00;23.90;;;;;;5056959;28;20143;-82
2022/05/09 12:36:33;;;;;;;2.17;1.97;;;38.80;24.00;;;;;;5058209;28;20809;-83
2022/05/09 12:39:13;;;;;;;3.08;2.17;;;38.60;23.40;;;;;;5047702;28;20035;-80
2022/05/09 12:41:55;;;;;;;2.30;2.10;;;38.40;23.70;;;;;;5021250;28;20032;-81
2022/05/09 12:44:43;;;;;;;2.70;1.80;;;38.20;24.60;;;;;;5031920;28;20498;-83
2022/05/09 12:47:13;;;;;;;2.30;2.00;;;38.20;24.60;;;;;;5037477;28;20029;-83
2022/05/09 12:49:55;;;;;;;3.47;2.13;;;38.20;25.00;;;;;;5024902;28;21357;-83
2022/05/09 12:52:52;;;;;;;2.08;1.88;;;38.20;24.50;;;;;;5024203;28;20126;-82
2022/05/09 12:58:37;;;;;;;2.25;1.88;;;38.20;24.10;;;;;;5030744;28;20044;-83
2022/05/09 13:01:25;;;;;;;3.08;2.10;;;38.20;24.60;;;;;;5068179;28;20020;-81
2022/05/09 13:03:54;;;;;;;2.57;2.10;;;38.10;24.50;;;;;;5029609;28;20036;-81
2022/05/09 13:06:29;;;;;;;3.00;1.88;;;38.00;24.10;;;;;;5029070;28;20037;-83
2022/05/09 13:08:56;;;;;;;2.60;1.67;;;37.90;24.00;;;;;;5024850;28;20028;-83
2022/05/09 13:11:30;;;;;;;3.47;2.20;;;37.80;24.60;;;;;;5037298;28;20021;-81
2022/05/09 13:14:06;;;;;;;4.53;2.30;;;37.80;24.20;;;;;;5021600;28;20045;-82
2022/05/09 13:16:37;;;;;;;2.20;1.90;;;37.80;24.00;;;;;;5055034;28;20341;-83
2022/05/09 13:19:03;;;;;;;2.55;1.85;;;37.70;24.40;;;;;;5071749;28;20400;-83
2022/05/09 13:21:38;;;;;;;3.10;2.20;;;37.70;24.50;;;;;;5041774;28;20303;-82
2022/05/09 13:24:08;;;;;;;2.85;1.90;;;37.70;24.30;;;;;;5024667;28;20071;-80
2022/05/09 13:26:45;;;;;;;2.15;1.85;;;37.70;24.80;;;;;;5056854;28;20044;-81